Time;durP1;ratioP1;P1;durP2;ratioP2;P2;SDS_P1;SDS_P2;PMS_P1;PMS_P2;Temp;Humidity;BMP_temperature;BMP_pressure;BME280_temperature;BME280_humidity;BME280_pressure;Samples;Min_cycle;Max_cycle;Signal;HPM_P1;HPM_P2
2021/04/04 00:02:18;;;;;;;18.50;11.13;;;;;;;;;;5001152;28;20492;-62
2021/04/04 00:04:45;;;;;;;20.67;11.83;;;;;;;;;;5014038;28;20533;-62
2021/04/04 00:07:12;;;;;;;16.80;10.80;;;;;;;;;;5011315;28;20831;-62
2021/04/04 00:09:38;;;;;;;21.23;11.63;;;;;;;;;;5013707;28;20880;-62
2021/04/04 00:12:06;;;;;;;21.77;11.37;;;;;;;;;;5011282;28;20495;-61
2021/04/04 00:14:34;;;;;;;18.37;11.13;;;;;;;;;;5010857;28;21194;-62
2021/04/04 00:17:00;;;;;;;19.20;11.50;;;;;;;;;;5013216;28;20492;-62
2021/04/04 00:19:27;;;;;;;21.63;10.77;;;;;;;;;;5012704;28;21126;-62
2021/04/04 00:21:53;;;;;;;22.03;11.33;;;;;;;;;;5011666;28;20486;-62
2021/04/04 00:24:20;;;;;;;20.30;10.37;;;;;;;;;;5013284;28;20532;-61
2021/04/04 00:26:47;;;;;;;17.80;11.17;;;;;;;;;;5012598;28;20489;-62
2021/04/04 00:29:13;;;;;;;17.10;10.33;;;;;;;;;;5012696;28;20504;-62
2021/04/04 00:31:41;;;;;;;21.33;11.77;;;;;;;;;;5010805;28;20568;-62
2021/04/04 00:34:08;;;;;;;14.50;10.40;;;;;;;;;;5008737;28;20552;-62
2021/04/04 00:36:34;;;;;;;18.30;9.97;;;;;;;;;;5006423;28;20542;-62
2021/04/04 00:39:01;;;;;;;19.87;9.90;;;;;;;;;;5009101;28;20466;-62
2021/04/04 00:41:28;;;;;;;21.50;10.83;;;;;;;;;;5007912;28;20556;-61
2021/04/04 00:43:54;;;;;;;14.73;10.03;;;;;;;;;;5012947;28;20446;-61
2021/04/04 00:46:21;;;;;;;16.10;10.27;;;;;;;;;;5009258;28;20462;-61
2021/04/04 00:48:48;;;;;;;27.17;10.97;;;;;;;;;;5012911;28;20456;-61
2021/04/04 00:51:15;;;;;;;21.90;11.00;;;;;;;;;;5011226;28;20867;-60
2021/04/04 00:53:41;;;;;;;16.37;10.80;;;;;;;;;;5011543;28;20576;-60
2021/04/04 00:56:08;;;;;;;15.70;8.93;;;;;;;;;;5011706;28;20564;-61
2021/04/04 00:58:35;;;;;;;17.80;10.30;;;;;;;;;;5000599;28;20450;-61
2021/04/04 01:01:01;;;;;;;14.03;9.83;;;;;;;;;;5011150;28;20964;-60
2021/04/04 01:03:28;;;;;;;25.30;10.40;;;;;;;;;;5011417;28;21016;-61
2021/04/04 01:05:59;;;;;;;17.57;9.70;;;;;;;;;;4997600;28;20462;-61
2021/04/04 01:08:26;;;;;;;20.63;10.93;;;;;;;;;;4997488;28;20449;-60
2021/04/04 01:10:53;;;;;;;17.70;10.87;;;;;;;;;;5011278;28;20473;-61
2021/04/04 01:13:21;;;;;;;19.53;11.13;;;;;;;;;;5009442;28;20489;-61
2021/04/04 01:15:51;;;;;;;15.90;10.77;;;;;;;;;;5006640;28;20592;-61
2021/04/04 01:18:21;;;;;;;21.80;11.27;;;;;;;;;;5008074;28;20469;-61
2021/04/04 01:20:49;;;;;;;20.10;11.27;;;;;;;;;;5006250;28;20455;-61
2021/04/04 01:23:28;;;;;;;16.20;10.77;;;;;;;;;;5011830;28;20473;-61
2021/04/04 01:26:01;;;;;;;22.70;10.90;;;;;;;;;;5001599;28;20540;-61
2021/04/04 01:28:30;;;;;;;22.90;11.27;;;;;;;;;;5012152;28;20448;-61
2021/04/04 01:30:58;;;;;;;21.27;12.13;;;;;;;;;;5009286;28;20516;-62
2021/04/04 01:33:26;;;;;;;13.80;9.83;;;;;;;;;;5010580;28;20568;-61
2021/04/04 01:35:54;;;;;;;24.97;11.73;;;;;;;;;;5010366;28;20568;-60
2021/04/04 01:38:23;;;;;;;22.23;11.87;;;;;;;;;;5011489;28;20468;-61
2021/04/04 01:40:53;;;;;;;19.57;11.57;;;;;;;;;;5011114;28;20462;-61
2021/04/04 01:43:20;;;;;;;18.60;11.10;;;;;;;;;;5002551;28;20926;-61
2021/04/04 01:45:48;;;;;;;19.80;12.50;;;;;;;;;;5001528;28;20554;-60
2021/04/04 01:48:15;;;;;;;19.67;11.40;;;;;;;;;;5001098;28;20976;-61
2021/04/04 01:50:43;;;;;;;21.93;12.00;;;;;;;;;;5009879;28;20528;-61
2021/04/04 01:53:10;;;;;;;18.27;10.93;;;;;;;;;;5007587;28;21007;-61
2021/04/04 01:55:38;;;;;;;18.10;10.90;;;;;;;;;;5009923;28;20493;-61
2021/04/04 01:58:06;;;;;;;19.63;10.43;;;;;;;;;;5010739;28;20836;-61
2021/04/04 02:00:32;;;;;;;17.63;11.30;;;;;;;;;;5011836;28;20472;-61
2021/04/04 02:03:00;;;;;;;18.80;10.37;;;;;;;;;;5010027;28;20580;-61
2021/04/04 02:05:27;;;;;;;16.83;10.83;;;;;;;;;;5011740;28;20971;-61
2021/04/04 02:07:55;;;;;;;15.30;10.33;;;;;;;;;;5010895;28;20540;-61
2021/04/04 02:10:22;;;;;;;20.57;9.77;;;;;;;;;;5011716;28;20540;-61
2021/04/04 02:12:49;;;;;;;18.00;9.50;;;;;;;;;;5009964;28;20647;-60
2021/04/04 02:15:17;;;;;;;21.70;10.63;;;;;;;;;;5008713;28;20477;-61
2021/04/04 02:17:46;;;;;;;20.77;10.73;;;;;;;;;;5011626;28;20528;-61
2021/04/04 02:20:18;;;;;;;17.90;9.80;;;;;;;;;;5010538;28;20459;-60
2021/04/04 02:22:45;;;;;;;16.37;10.30;;;;;;;;;;5011697;28;20477;-61
2021/04/04 02:25:13;;;;;;;18.57;10.00;;;;;;;;;;5009857;28;20454;-61
2021/04/04 02:27:40;;;;;;;16.70;10.30;;;;;;;;;;5011354;28;20536;-61
2021/04/04 02:30:08;;;;;;;20.90;9.70;;;;;;;;;;5010758;28;20802;-61
2021/04/04 02:32:36;;;;;;;20.07;10.00;;;;;;;;;;5008309;28;20495;-60
2021/04/04 02:35:04;;;;;;;17.33;9.93;;;;;;;;;;5009625;28;20531;-60
2021/04/04 02:37:32;;;;;;;13.47;9.87;;;;;;;;;;5010293;28;20470;-60
2021/04/04 02:40:02;;;;;;;20.63;11.60;;;;;;;;;;5010254;28;20480;-60
2021/04/04 02:42:29;;;;;;;15.53;10.90;;;;;;;;;;5010051;28;21244;-60
2021/04/04 02:44:57;;;;;;;15.90;9.90;;;;;;;;;;5010701;28;20457;-60
2021/04/04 02:47:25;;;;;;;16.07;11.23;;;;;;;;;;5010400;28;20473;-60
2021/04/04 02:49:53;;;;;;;15.50;10.77;;;;;;;;;;5010471;28;21134;-60
2021/04/04 02:52:20;;;;;;;16.27;11.03;;;;;;;;;;5011360;28;20564;-61
2021/04/04 02:54:51;;;;;;;16.73;10.27;;;;;;;;;;5009096;28;20485;-61
2021/04/04 02:57:18;;;;;;;17.27;10.67;;;;;;;;;;5009047;28;20473;-61
2021/04/04 02:59:48;;;;;;;21.77;11.47;;;;;;;;;;5010810;28;20843;-61
2021/04/04 03:02:16;;;;;;;22.17;11.37;;;;;;;;;;5006783;28;20616;-61
2021/04/04 03:04:44;;;;;;;20.27;11.87;;;;;;;;;;5009543;28;20599;-60
2021/04/04 03:07:12;;;;;;;19.43;10.50;;;;;;;;;;5013442;28;20467;-61
2021/04/04 03:09:40;;;;;;;16.00;10.43;;;;;;;;;;5014490;28;20490;-61
2021/04/04 03:12:08;;;;;;;21.20;10.97;;;;;;;;;;5012841;28;20567;-61
2021/04/04 03:14:35;;;;;;;16.07;9.80;;;;;;;;;;5012322;28;20489;-61
2021/04/04 03:17:02;;;;;;;16.93;10.97;;;;;;;;;;5012451;28;20465;-61
2021/04/04 03:19:31;;;;;;;22.07;10.60;;;;;;;;;;5013904;28;20472;-61
2021/04/04 03:21:58;;;;;;;17.97;10.30;;;;;;;;;;5013463;28;20600;-61
2021/04/04 03:24:25;;;;;;;20.97;10.20;;;;;;;;;;5013450;28;20897;-61
2021/04/04 03:26:53;;;;;;;20.10;10.90;;;;;;;;;;5013182;28;20469;-61
2021/04/04 03:29:21;;;;;;;15.07;9.33;;;;;;;;;;5011104;28;20840;-61
2021/04/04 03:31:48;;;;;;;15.70;9.10;;;;;;;;;;5011485;28;20587;-61
2021/04/04 03:34:15;;;;;;;13.27;8.67;;;;;;;;;;5010776;28;20929;-61
2021/04/04 03:36:42;;;;;;;16.13;10.73;;;;;;;;;;5012711;28;20465;-61
2021/04/04 03:39:09;;;;;;;19.87;10.23;;;;;;;;;;5001004;28;20817;-61
2021/04/04 03:41:37;;;;;;;22.13;11.40;;;;;;;;;;5013197;28;20578;-61
2021/04/04 03:44:04;;;;;;;20.57;11.13;;;;;;;;;;5013767;28;20449;-61
2021/04/04 03:46:33;;;;;;;17.53;10.00;;;;;;;;;;4994482;28;20442;-61
2021/04/04 03:49:00;;;;;;;16.77;9.90;;;;;;;;;;5003353;28;20465;-61
2021/04/04 03:51:27;;;;;;;23.37;10.37;;;;;;;;;;5012888;28;20532;-61
2021/04/04 03:53:56;;;;;;;13.10;8.70;;;;;;;;;;5011787;28;20917;-61
2021/04/04 03:56:24;;;;;;;18.50;9.33;;;;;;;;;;5014312;28;20457;-61
2021/04/04 03:58:51;;;;;;;18.33;10.23;;;;;;;;;;5012898;28;20474;-61
2021/04/04 04:01:19;;;;;;;15.00;10.10;;;;;;;;;;5012533;28;20476;-61
2021/04/04 04:03:47;;;;;;;13.97;9.47;;;;;;;;;;5011191;28;20469;-61
2021/04/04 04:06:14;;;;;;;13.40;11.40;;;;;;;;;;5001313;28;20507;-61
2021/04/04 04:08:41;;;;;;;13.70;10.63;;;;;;;;;;5013184;28;20573;-60
2021/04/04 04:11:09;;;;;;;18.13;11.17;;;;;;;;;;5013855;28;20532;-61
2021/04/04 04:13:36;;;;;;;21.60;11.57;;;;;;;;;;5012902;28;20557;-60
2021/04/04 04:16:04;;;;;;;24.20;11.13;;;;;;;;;;5010492;28;20528;-61
2021/04/04 04:18:31;;;;;;;23.70;12.20;;;;;;;;;;5012633;28;20454;-61
2021/04/04 04:20:58;;;;;;;16.37;11.37;;;;;;;;;;5011787;28;20466;-60
2021/04/04 04:23:25;;;;;;;16.70;10.97;;;;;;;;;;5013563;28;20488;-61
2021/04/04 04:25:53;;;;;;;19.37;11.63;;;;;;;;;;5009649;28;20461;-61
2021/04/04 04:28:20;;;;;;;16.10;11.37;;;;;;;;;;5013646;28;20529;-61
2021/04/04 04:30:47;;;;;;;19.07;10.83;;;;;;;;;;5010218;28;20465;-61
2021/04/04 04:33:16;;;;;;;21.80;12.10;;;;;;;;;;5012219;28;20572;-61
2021/04/04 04:35:44;;;;;;;23.30;11.43;;;;;;;;;;5011470;28;20568;-61
2021/04/04 04:38:11;;;;;;;17.00;10.40;;;;;;;;;;5013730;28;20536;-61
2021/04/04 04:40:38;;;;;;;15.97;10.63;;;;;;;;;;5011640;28;20552;-61
2021/04/04 04:43:08;;;;;;;17.60;10.47;;;;;;;;;;5011795;28;20761;-61
2021/04/04 04:45:37;;;;;;;20.70;10.47;;;;;;;;;;5012072;28;20892;-61
2021/04/04 04:48:04;;;;;;;21.87;10.90;;;;;;;;;;5012189;28;20984;-61
2021/04/04 04:50:31;;;;;;;21.13;9.83;;;;;;;;;;5013364;28;20533;-61
2021/04/04 04:52:59;;;;;;;17.57;9.87;;;;;;;;;;5011333;28;20580;-61
2021/04/04 04:55:26;;;;;;;17.40;9.87;;;;;;;;;;5013541;28;20486;-61
2021/04/04 04:57:54;;;;;;;15.60;9.93;;;;;;;;;;5009820;28;20860;-61
2021/04/04 05:00:22;;;;;;;16.07;9.30;;;;;;;;;;5012429;28;21036;-61
2021/04/04 05:02:49;;;;;;;19.20;9.50;;;;;;;;;;5011271;28;20517;-61
2021/04/04 05:05:17;;;;;;;19.47;9.53;;;;;;;;;;5012512;28;21108;-61
2021/04/04 05:07:44;;;;;;;18.57;9.30;;;;;;;;;;5013426;28;20550;-60
2021/04/04 05:10:12;;;;;;;16.70;9.07;;;;;;;;;;5012576;28;20453;-61
2021/04/04 05:12:45;;;;;;;18.17;9.60;;;;;;;;;;5005880;28;20485;-61
2021/04/04 05:15:12;;;;;;;14.20;8.70;;;;;;;;;;5004922;28;20815;-61
2021/04/04 05:17:39;;;;;;;12.80;7.83;;;;;;;;;;5010092;28;20611;-61
2021/04/04 05:20:07;;;;;;;18.23;8.00;;;;;;;;;;5012269;28;20548;-61
2021/04/04 05:22:34;;;;;;;14.93;8.10;;;;;;;;;;5010184;28;20477;-61
2021/04/04 05:25:01;;;;;;;13.23;8.43;;;;;;;;;;4996675;28;20445;-61
2021/04/04 05:27:27;;;;;;;13.10;8.37;;;;;;;;;;5010790;28;20826;-61
2021/04/04 05:29:58;;;;;;;13.90;8.10;;;;;;;;;;5009481;28;20454;-60
2021/04/04 05:32:25;;;;;;;13.27;7.63;;;;;;;;;;5011964;28;20515;-61
2021/04/04 05:34:52;;;;;;;12.60;7.53;;;;;;;;;;5009891;28;20536;-61
2021/04/04 05:37:18;;;;;;;15.70;8.33;;;;;;;;;;5012011;28;20818;-60
2021/04/04 05:39:45;;;;;;;16.83;7.83;;;;;;;;;;5011124;28;21008;-61
2021/04/04 05:42:13;;;;;;;11.83;7.43;;;;;;;;;;5011880;28;20564;-61
2021/04/04 05:44:42;;;;;;;19.67;8.17;;;;;;;;;;5008209;28;20961;-61
2021/04/04 05:47:15;;;;;;;12.37;7.63;;;;;;;;;;5011817;28;20780;-60
2021/04/04 05:49:50;;;;;;;12.57;8.27;;;;;;;;;;5011635;28;20536;-61
2021/04/04 05:52:20;;;;;;;12.43;7.70;;;;;;;;;;5008823;28;20759;-61
2021/04/04 05:54:54;;;;;;;16.07;8.13;;;;;;;;;;5023812;23;20509;-66
2021/04/04 05:57:21;;;;;;;12.13;7.33;;;;;;;;;;4981872;28;20473;-65
2021/04/04 05:59:49;;;;;;;9.57;6.60;;;;;;;;;;4986934;28;20472;-66
2021/04/04 06:02:30;;;;;;;8.73;5.07;;;;;;;;;;4987212;28;20830;-68
2021/04/04 06:05:01;;;;;;;5.90;3.73;;;;;;;;;;4986599;28;20606;-69
2021/04/04 06:07:43;;;;;;;9.57;4.10;;;;;;;;;;4991348;28;20466;-67
2021/04/04 06:10:11;;;;;;;7.97;4.27;;;;;;;;;;4982721;28;21117;-67
2021/04/04 06:12:55;;;;;;;10.60;4.40;;;;;;;;;;4976016;28;20470;-67
2021/04/04 06:15:25;;;;;;;6.87;3.30;;;;;;;;;;4990495;28;20969;-68
2021/04/04 06:17:55;;;;;;;6.70;3.07;;;;;;;;;;4977951;28;20487;-68
2021/04/04 06:20:32;;;;;;;9.33;3.10;;;;;;;;;;4981468;28;20478;-68
2021/04/04 06:23:07;;;;;;;5.90;2.90;;;;;;;;;;4977231;28;21017;-68
2021/04/04 06:25:42;;;;;;;9.00;3.50;;;;;;;;;;4990757;28;20534;-68
2021/04/04 06:28:10;;;;;;;4.27;2.80;;;;;;;;;;4992007;28;20450;-67
2021/04/04 06:30:50;;;;;;;4.50;2.17;;;;;;;;;;4989960;28;20919;-67
2021/04/04 06:33:22;;;;;;;8.00;2.80;;;;;;;;;;4991682;28;21067;-67
2021/04/04 06:35:53;;;;;;;5.53;2.80;;;;;;;;;;4985201;28;20544;-68
2021/04/04 06:38:46;;;;;;;4.33;1.93;;;;;;;;;;4992281;28;20480;-68
2021/04/04 06:41:22;;;;;;;5.93;2.50;;;;;;;;;;4983999;28;20463;-68
2021/04/04 06:43:53;;;;;;;4.20;1.93;;;;;;;;;;4976474;28;20562;-68
2021/04/04 06:46:26;;;;;;;4.70;2.33;;;;;;;;;;4989078;28;20597;-68
2021/04/04 06:48:59;;;;;;;4.47;2.40;;;;;;;;;;4995365;28;20445;-68
2021/04/04 06:51:38;;;;;;;6.10;2.73;;;;;;;;;;4994784;28;20462;-68
2021/04/04 06:54:12;;;;;;;5.43;2.20;;;;;;;;;;4994706;28;20497;-68
2021/04/04 06:56:46;;;;;;;5.90;2.40;;;;;;;;;;4987159;28;20467;-68
2021/04/04 06:59:17;;;;;;;6.27;2.13;;;;;;;;;;4988194;28;20462;-68
2021/04/04 07:01:48;;;;;;;4.47;2.37;;;;;;;;;;4991498;28;20467;-68
2021/04/04 07:04:18;;;;;;;6.10;2.67;;;;;;;;;;4992708;28;21015;-67
2021/04/04 07:07:05;;;;;;;4.30;2.30;;;;;;;;;;4994586;28;20553;-67
2021/04/04 07:09:42;;;;;;;4.73;2.60;;;;;;;;;;4993376;28;20446;-68
2021/04/04 07:12:17;;;;;;;3.57;2.27;;;;;;;;;;4992899;28;20458;-68
2021/04/04 07:14:52;;;;;;;4.73;2.33;;;;;;;;;;4993888;28;20489;-67
2021/04/04 07:17:26;;;;;;;3.47;2.20;;;;;;;;;;4993512;28;20434;-68
2021/04/04 07:20:13;;;;;;;6.63;2.27;;;;;;;;;;4994543;28;20442;-67
2021/04/04 07:23:12;;;;;;;4.30;2.07;;;;;;;;;;4993155;28;20529;-67
2021/04/04 07:25:42;;;;;;;6.47;2.50;;;;;;;;;;4928251;29;20517;-67
2021/04/04 07:28:16;;;;;;;4.93;2.00;;;;;;;;;;4934015;29;20449;-67
2021/04/04 07:30:45;;;;;;;26.83;6.20;;;;;;;;;;4965902;28;20584;-67
2021/04/04 07:33:21;;;;;;;13.20;3.80;;;;;;;;;;4994565;28;20466;-66
2021/04/04 07:35:51;;;;;;;5.80;2.83;;;;;;;;;;4994258;28;20562;-67
2021/04/04 07:38:20;;;;;;;6.13;2.63;;;;;;;;;;4993930;28;20454;-67
2021/04/04 07:40:51;;;;;;;5.27;2.70;;;;;;;;;;4975621;28;20550;-67
2021/04/04 07:43:22;;;;;;;5.10;2.80;;;;;;;;;;4980556;28;20480;-67
2021/04/04 07:45:54;;;;;;;5.80;2.40;;;;;;;;;;4992946;28;20442;-66
2021/04/04 07:48:23;;;;;;;5.93;2.53;;;;;;;;;;4993567;28;20458;-66
2021/04/04 07:50:55;;;;;;;4.47;1.97;;;;;;;;;;4981557;28;20509;-67
2021/04/04 07:53:27;;;;;;;7.57;2.70;;;;;;;;;;4994371;28;20519;-68
2021/04/04 07:55:59;;;;;;;5.70;2.97;;;;;;;;;;4975041;28;20562;-68
2021/04/04 07:58:28;;;;;;;5.53;2.33;;;;;;;;;;4986839;28;20456;-68
2021/04/04 08:00:57;;;;;;;4.53;2.50;;;;;;;;;;4987244;28;20451;-68
2021/04/04 08:03:26;;;;;;;2.50;2.10;;;;;;;;;;4992821;28;20471;-67
2021/04/04 08:05:54;;;;;;;3.20;2.50;;;;;;;;;;4982662;28;20442;-67
2021/04/04 08:08:23;;;;;;;7.83;3.03;;;;;;;;;;4993293;28;20450;-67
2021/04/04 08:10:53;;;;;;;5.63;3.00;;;;;;;;;;4994055;28;20446;-66
2021/04/04 08:13:23;;;;;;;6.70;3.70;;;;;;;;;;4993146;28;21032;-66
2021/04/04 08:15:54;;;;;;;5.53;3.43;;;;;;;;;;4992191;28;20482;-68
2021/04/04 08:18:21;;;;;;;6.90;4.20;;;;;;;;;;4992630;28;21000;-67
2021/04/04 08:20:49;;;;;;;5.67;3.40;;;;;;;;;;4993726;28;20453;-67
2021/04/04 08:23:18;;;;;;;6.13;3.47;;;;;;;;;;4992939;28;20482;-67
2021/04/04 08:25:47;;;;;;;7.97;3.30;;;;;;;;;;4993368;28;20533;-68
2021/04/04 08:28:17;;;;;;;6.10;3.13;;;;;;;;;;4992753;28;20953;-67
2021/04/04 08:30:47;;;;;;;4.57;3.30;;;;;;;;;;4991898;28;20451;-67
2021/04/04 08:33:17;;;;;;;6.07;3.73;;;;;;;;;;4992732;28;20529;-67
2021/04/04 08:35:45;;;;;;;5.13;3.30;;;;;;;;;;4993480;28;20562;-69
2021/04/04 08:38:17;;;;;;;5.10;3.03;;;;;;;;;;4992824;28;20804;-67
2021/04/04 08:40:43;;;;;;;7.70;3.43;;;;;;;;;;4993349;28;20446;-67
2021/04/04 08:43:11;;;;;;;5.33;3.30;;;;;;;;;;4993074;28;20474;-67
2021/04/04 08:45:40;;;;;;;4.57;2.47;;;;;;;;;;4992657;28;20446;-68
2021/04/04 08:48:08;;;;;;;6.00;4.10;;;;;;;;;;4989729;28;20458;-68
2021/04/04 08:50:36;;;;;;;5.07;3.93;;;;;;;;;;4988514;28;20455;-69
2021/04/04 08:53:10;;;;;;;6.30;3.30;;;;;;;;;;4990747;28;20478;-69
2021/04/04 08:55:37;;;;;;;4.93;3.40;;;;;;;;;;4985159;28;21069;-69
2021/04/04 08:58:06;;;;;;;5.47;2.90;;;;;;;;;;4992416;28;20449;-69
2021/04/04 09:00:34;;;;;;;5.50;3.23;;;;;;;;;;4973719;28;20448;-71
2021/04/04 09:03:05;;;;;;;5.33;3.13;;;;;;;;;;4986447;28;20479;-69
2021/04/04 09:05:34;;;;;;;3.50;3.07;;;;;;;;;;4983932;28;20998;-68
2021/04/04 09:08:02;;;;;;;21.63;15.10;;;;;;;;;;4982864;28;20505;-67
2021/04/04 09:10:29;;;;;;;11.63;9.67;;;;;;;;;;4992081;28;20541;-66
2021/04/04 09:12:57;;;;;;;11.13;6.00;;;;;;;;;;4986342;28;21270;-66
2021/04/04 09:15:24;;;;;;;4.47;4.07;;;;;;;;;;4987662;28;20569;-68
2021/04/04 09:17:53;;;;;;;5.17;4.40;;;;;;;;;;4990858;28;20543;-67
2021/04/04 09:20:31;;;;;;;9.23;5.20;;;;;;;;;;4993606;28;21010;-66
2021/04/04 09:22:58;;;;;;;10.20;4.97;;;;;;;;;;4992478;28;20481;-65
2021/04/04 09:25:25;;;;;;;7.67;4.00;;;;;;;;;;4992118;28;20805;-67
2021/04/04 09:27:53;;;;;;;6.70;3.73;;;;;;;;;;4992162;28;20462;-66
2021/04/04 09:30:33;;;;;;;5.13;2.97;;;;;;;;;;4990884;28;20446;-67
2021/04/04 09:33:00;;;;;;;5.70;3.50;;;;;;;;;;4983529;28;20478;-66
2021/04/04 09:35:29;;;;;;;5.73;3.17;;;;;;;;;;4985174;28;20609;-66
2021/04/04 09:38:01;;;;;;;4.97;2.70;;;;;;;;;;4983050;28;20455;-67
2021/04/04 09:40:28;;;;;;;4.80;2.80;;;;;;;;;;4982258;28;20541;-67
2021/04/04 09:42:55;;;;;;;3.53;2.50;;;;;;;;;;4980118;28;20896;-66
2021/04/04 09:45:23;;;;;;;5.87;2.90;;;;;;;;;;4983295;28;20462;-67
2021/04/04 09:47:50;;;;;;;4.30;2.90;;;;;;;;;;4991781;28;20458;-66
2021/04/04 09:50:18;;;;;;;5.10;2.53;;;;;;;;;;4987186;28;20478;-67
2021/04/04 09:52:44;;;;;;;2.83;2.20;;;;;;;;;;4986738;28;20451;-66
2021/04/04 09:55:14;;;;;;;4.20;2.37;;;;;;;;;;4976160;28;20575;-68
2021/04/04 09:57:41;;;;;;;3.93;2.07;;;;;;;;;;4984582;28;20958;-68
2021/04/04 10:00:18;;;;;;;3.57;2.70;;;;;;;;;;4991155;28;20534;-66
2021/04/04 10:02:46;;;;;;;5.57;2.80;;;;;;;;;;4985729;28;20853;-67
2021/04/04 10:05:13;;;;;;;4.60;2.30;;;;;;;;;;4983968;28;20533;-66
2021/04/04 10:07:39;;;;;;;5.10;2.57;;;;;;;;;;4979500;28;20458;-68
2021/04/04 10:10:07;;;;;;;3.33;2.40;;;;;;;;;;4979127;28;20453;-66
2021/04/04 10:12:48;;;;;;;3.03;2.20;;;;;;;;;;4987266;28;20455;-68
2021/04/04 10:15:16;;;;;;;4.47;2.30;;;;;;;;;;4975136;28;20890;-67
2021/04/04 10:17:53;;;;;;;6.83;2.37;;;;;;;;;;4991196;28;20530;-67
2021/04/04 10:20:30;;;;;;;3.30;2.27;;;;;;;;;;4977944;28;20451;-67
2021/04/04 10:22:56;;;;;;;2.97;1.97;;;;;;;;;;4988397;28;20587;-68
2021/04/04 10:25:23;;;;;;;3.03;2.00;;;;;;;;;;4977185;28;20458;-68
2021/04/04 10:27:57;;;;;;;4.30;2.10;;;;;;;;;;4977665;28;20850;-67
2021/04/04 10:30:28;;;;;;;3.50;2.13;;;;;;;;;;4980571;28;20493;-67
2021/04/04 10:32:54;;;;;;;8.80;4.03;;;;;;;;;;4998922;28;20450;-65
2021/04/04 10:35:31;;;;;;;5.17;3.80;;;;;;;;;;4993880;28;21153;-66
2021/04/04 10:38:05;;;;;;;10.33;4.37;;;;;;;;;;4987729;28;20597;-68
2021/04/04 10:40:42;;;;;;;10.00;4.30;;;;;;;;;;4981519;28;20461;-66
2021/04/04 10:43:08;;;;;;;5.73;3.70;;;;;;;;;;4991127;28;20545;-67
2021/04/04 10:45:36;;;;;;;4.10;1.90;;;;;;;;;;4993270;28;20535;-67
2021/04/04 10:48:06;;;;;;;7.83;2.87;;;;;;;;;;4995771;28;20478;-67
2021/04/04 10:50:33;;;;;;;5.23;2.73;;;;;;;;;;4994523;28;20482;-67
2021/04/04 10:53:00;;;;;;;7.47;3.30;;;;;;;;;;4994923;28;20613;-67
2021/04/04 10:55:27;;;;;;;8.30;3.13;;;;;;;;;;4994151;28;20466;-67
2021/04/04 10:57:54;;;;;;;3.37;2.10;;;;;;;;;;4994391;28;20896;-66
2021/04/04 11:00:22;;;;;;;5.63;2.70;;;;;;;;;;4994473;28;20450;-68
2021/04/04 11:02:50;;;;;;;3.40;2.07;;;;;;;;;;4993036;28;20450;-68
2021/04/04 11:05:20;;;;;;;7.20;4.10;;;;;;;;;;4992589;28;20455;-67
2021/04/04 11:07:48;;;;;;;10.33;4.57;;;;;;;;;;4995270;28;20454;-66
2021/04/04 11:10:15;;;;;;;7.30;4.00;;;;;;;;;;4994891;28;20462;-68
2021/04/04 11:12:42;;;;;;;7.80;4.27;;;;;;;;;;4982164;28;20534;-66
2021/04/04 11:15:12;;;;;;;8.13;4.20;;;;;;;;;;4984213;28;20490;-67
2021/04/04 11:17:39;;;;;;;8.40;3.87;;;;;;;;;;4990823;28;20447;-67
2021/04/04 11:20:10;;;;;;;11.70;4.40;;;;;;;;;;4992714;28;20840;-67
2021/04/04 11:22:37;;;;;;;7.90;4.00;;;;;;;;;;4994558;28;20526;-67
2021/04/04 11:25:08;;;;;;;5.57;4.03;;;;;;;;;;4987843;28;20450;-67
2021/04/04 11:27:40;;;;;;;7.93;4.43;;;;;;;;;;4991703;28;20492;-67
2021/04/04 11:30:07;;;;;;;7.17;4.20;;;;;;;;;;4987741;28;20798;-67
2021/04/04 11:32:34;;;;;;;8.83;4.60;;;;;;;;;;4982434;28;20533;-66
2021/04/04 11:35:01;;;;;;;7.50;3.90;;;;;;;;;;4994075;28;20533;-66
2021/04/04 11:37:40;;;;;;;6.90;4.17;;;;;;;;;;4994357;28;20526;-66
2021/04/04 11:40:25;;;;;;;8.73;4.80;;;;;;;;;;4994363;28;20454;-66
2021/04/04 11:43:12;;;;;;;9.70;4.63;;;;;;;;;;4991455;28;20832;-67
2021/04/04 11:45:41;;;;;;;7.77;4.13;;;;;;;;;;4993121;28;20525;-67
2021/04/04 11:48:31;;;;;;;10.07;4.80;;;;;;;;;;4994844;28;20454;-67
2021/04/04 11:51:19;;;;;;;6.33;3.90;;;;;;;;;;4971711;28;20472;-67
2021/04/04 11:53:46;;;;;;;7.87;5.20;;;;;;;;;;4986906;28;20493;-67
2021/04/04 11:56:40;;;;;;;8.00;4.53;;;;;;;;;;4991834;28;20489;-67
2021/04/04 11:59:06;;;;;;;9.30;5.07;;;;;;;;;;4988005;28;20450;-66
2021/04/04 12:01:34;;;;;;;7.70;4.90;;;;;;;;;;4991995;28;20481;-68
2021/04/04 12:04:15;;;;;;;7.27;3.80;;;;;;;;;;4992685;28;20842;-68
2021/04/04 12:06:41;;;;;;;7.77;4.50;;;;;;;;;;4986714;28;20458;-66
2021/04/04 12:09:08;;;;;;;10.33;3.63;;;;;;;;;;4991589;28;20490;-67
2021/04/04 12:11:35;;;;;;;7.07;3.80;;;;;;;;;;4992925;28;20526;-66
2021/04/04 12:14:01;;;;;;;4.93;3.27;;;;;;;;;;4986385;28;20566;-68
2021/04/04 12:16:28;;;;;;;5.83;3.83;;;;;;;;;;4990220;28;20589;-67
2021/04/04 12:19:00;;;;;;;4.80;3.13;;;;;;;;;;4993343;28;20454;-67
2021/04/04 12:21:27;;;;;;;5.10;3.60;;;;;;;;;;4982275;28;20449;-67
2021/04/04 12:23:54;;;;;;;5.53;3.73;;;;;;;;;;4982735;28;20558;-68
2021/04/04 12:26:21;;;;;;;3.97;2.97;;;;;;;;;;4982257;28;20473;-67
2021/04/04 12:28:47;;;;;;;4.50;3.40;;;;;;;;;;4993249;28;20838;-68
2021/04/04 12:31:14;;;;;;;5.50;3.67;;;;;;;;;;4992486;28;20600;-67
2021/04/04 12:33:41;;;;;;;3.77;3.47;;;;;;;;;;4991244;28;20869;-67
2021/04/04 12:36:08;;;;;;;3.80;3.40;;;;;;;;;;4993333;28;20849;-67
2021/04/04 12:38:37;;;;;;;4.07;3.73;;;;;;;;;;4989906;28;21042;-68
2021/04/04 12:41:03;;;;;;;4.13;3.53;;;;;;;;;;4976233;28;20855;-68
2021/04/04 12:43:30;;;;;;;8.00;3.47;;;;;;;;;;4981181;28;21030;-67
2021/04/04 12:45:57;;;;;;;4.87;3.73;;;;;;;;;;4986434;28;20452;-67
2021/04/04 12:48:24;;;;;;;6.20;4.20;;;;;;;;;;4981288;28;20451;-67
2021/04/04 12:50:52;;;;;;;5.00;4.20;;;;;;;;;;4984954;28;20457;-67
2021/04/04 12:53:23;;;;;;;5.00;4.50;;;;;;;;;;4991203;28;20573;-68
2021/04/04 12:55:50;;;;;;;8.90;5.10;;;;;;;;;;4989983;28;20490;-67
2021/04/04 12:58:16;;;;;;;5.60;4.10;;;;;;;;;;4993312;28;20561;-68
2021/04/04 13:00:45;;;;;;;5.27;4.37;;;;;;;;;;4991292;28;20500;-67
2021/04/04 13:03:13;;;;;;;6.53;4.63;;;;;;;;;;4988625;28;20503;-67
2021/04/04 13:05:40;;;;;;;7.77;3.67;;;;;;;;;;4982324;28;20465;-67
2021/04/04 13:08:14;;;;;;;6.13;3.67;;;;;;;;;;4989791;28;20447;-68
2021/04/04 13:10:43;;;;;;;5.30;4.20;;;;;;;;;;4991759;28;20538;-67
2021/04/04 13:13:10;;;;;;;7.10;4.80;;;;;;;;;;4992985;28;20467;-67
2021/04/04 13:15:37;;;;;;;9.20;8.30;;;;;;;;;;4987535;28;20489;-67
2021/04/04 13:18:04;;;;;;;5.37;4.00;;;;;;;;;;4990116;28;20459;-68
2021/04/04 13:20:31;;;;;;;4.60;3.43;;;;;;;;;;4984768;28;20542;-68
2021/04/04 13:22:57;;;;;;;5.80;3.60;;;;;;;;;;4974957;28;20475;-67
2021/04/04 13:25:24;;;;;;;5.20;3.90;;;;;;;;;;4989323;28;21033;-67
2021/04/04 13:27:52;;;;;;;7.77;4.23;;;;;;;;;;4991963;28;20459;-67
2021/04/04 13:30:26;;;;;;;8.07;4.50;;;;;;;;;;4984583;28;20446;-67
2021/04/04 13:32:52;;;;;;;6.93;5.00;;;;;;;;;;4990778;28;20542;-67
2021/04/04 13:35:26;;;;;;;6.50;4.43;;;;;;;;;;4991046;28;20486;-67
2021/04/04 13:37:53;;;;;;;6.27;5.13;;;;;;;;;;4992143;28;20494;-66
2021/04/04 13:40:20;;;;;;;4.70;4.30;;;;;;;;;;4991043;28;20482;-67
2021/04/04 13:42:51;;;;;;;5.73;4.00;;;;;;;;;;4991385;28;20451;-66
2021/04/04 13:45:35;;;;;;;4.10;3.20;;;;;;;;;;4992266;28;21017;-66
2021/04/04 13:48:03;;;;;;;4.90;4.00;;;;;;;;;;4991462;28;20466;-66
2021/04/04 13:50:37;;;;;;;4.33;3.57;;;;;;;;;;4986093;28;20462;-66
2021/04/04 13:53:14;;;;;;;5.93;4.13;;;;;;;;;;4990233;28;20474;-66
2021/04/04 13:55:41;;;;;;;6.97;4.97;;;;;;;;;;4990668;28;20525;-66
2021/04/04 13:58:08;;;;;;;6.67;4.67;;;;;;;;;;4991288;28;20461;-66
2021/04/04 14:00:45;;;;;;;8.13;4.20;;;;;;;;;;4985124;28;20446;-66
2021/04/04 14:03:14;;;;;;;4.57;4.13;;;;;;;;;;4990964;28;20474;-66
2021/04/04 14:05:41;;;;;;;7.30;3.93;;;;;;;;;;4990149;28;20542;-66
2021/04/04 14:08:08;;;;;;;8.50;4.87;;;;;;;;;;4991581;28;20533;-66
2021/04/04 14:10:35;;;;;;;8.10;5.40;;;;;;;;;;4989865;28;20826;-66
2021/04/04 14:13:01;;;;;;;4.73;4.30;;;;;;;;;;4983399;28;20475;-66
2021/04/04 14:15:28;;;;;;;7.00;4.63;;;;;;;;;;4981506;28;20478;-66
2021/04/04 14:17:54;;;;;;;5.57;4.57;;;;;;;;;;4982726;28;20553;-66
2021/04/04 14:20:22;;;;;;;7.20;6.50;;;;;;;;;;4990894;28;20541;-66
2021/04/04 14:22:49;;;;;;;5.70;5.20;;;;;;;;;;4990466;28;20588;-66
2021/04/04 14:25:15;;;;;;;7.70;5.50;;;;;;;;;;4989616;28;20541;-64
2021/04/04 14:27:43;;;;;;;6.20;5.00;;;;;;;;;;4988160;28;20524;-65
2021/04/04 14:30:10;;;;;;;6.20;3.77;;;;;;;;;;4984875;28;20447;-66
2021/04/04 14:32:37;;;;;;;4.87;4.20;;;;;;;;;;4983083;28;20510;-66
2021/04/04 14:35:03;;;;;;;6.80;4.40;;;;;;;;;;4986050;28;20488;-66
2021/04/04 14:37:31;;;;;;;5.70;4.30;;;;;;;;;;4990063;28;20553;-66
2021/04/04 14:39:58;;;;;;;9.57;4.80;;;;;;;;;;4978882;28;20459;-66
2021/04/04 14:42:24;;;;;;;7.53;4.90;;;;;;;;;;4981811;28;20529;-65
2021/04/04 14:44:51;;;;;;;7.40;4.80;;;;;;;;;;4990958;28;20474;-66
2021/04/04 14:47:17;;;;;;;5.20;4.70;;;;;;;;;;4989516;28;20488;-66